Terminal Aerodrome Forecast
Issued by NWS

Current Version | Previous Version | Text Only | Print | Product List | Glossary Off
Versions: 1 2 3 4 5 6 7 8 9 10 11 12 13 14 15 16 17 18 19 20 21 22 23 24 25 26 27

000
FTUS41 KILN 201100
TAFLCK
TAF
KLCK 201138Z 2012/2112 23006KT P6SM SCT080 BKN250
     FM201500 25008KT P6SM SCT040
     FM201800 27012G20KT P6SM SCT040
     FM210000 25007KT P6SM SCT100 SCT250
     FM210600 21005KT P6SM SCT100 SCT250=

USA.gov is the U.S. government's official web portal to all federal, state and local government web resources and services.